sensor_id;sensor_type;location;lat;lon;timestamp;temperature;humidity
13049;DHT22;6591;51.446;5.404;2022-07-05T00:00:54;16.30;90.30
13049;DHT22;6591;51.446;5.404;2022-07-05T00:03:23;16.10;87.70
13049;DHT22;6591;51.446;5.404;2022-07-05T00:05:50;15.90;88.80
13049;DHT22;6591;51.446;5.404;2022-07-05T00:08:17;15.90;89.70
13049;DHT22;6591;51.446;5.404;2022-07-05T00:10:44;15.70;90.30
13049;DHT22;6591;51.446;5.404;2022-07-05T00:13:11;15.60;90.70
13049;DHT22;6591;51.446;5.404;2022-07-05T00:15:38;16.50;91.40
13049;DHT22;6591;51.446;5.404;2022-07-05T00:18:07;17.20;92.00
13049;DHT22;6591;51.446;5.404;2022-07-05T00:20:34;15.40;91.70
13049;DHT22;6591;51.446;5.404;2022-07-05T00:23:01;15.30;91.90
13049;DHT22;6591;51.446;5.404;2022-07-05T00:25:29;15.20;92.10
13049;DHT22;6591;51.446;5.404;2022-07-05T00:27:56;16.60;93.00
13049;DHT22;6591;51.446;5.404;2022-07-05T00:30:24;16.00;93.00
13049;DHT22;6591;51.446;5.404;2022-07-05T00:32:52;15.00;92.90
13049;DHT22;6591;51.446;5.404;2022-07-05T00:35:19;15.00;93.30
13049;DHT22;6591;51.446;5.404;2022-07-05T00:37:46;14.90;93.50
13049;DHT22;6591;51.446;5.404;2022-07-05T00:40:13;14.80;93.80
13049;DHT22;6591;51.446;5.404;2022-07-05T00:42:40;15.80;94.50
13049;DHT22;6591;51.446;5.404;2022-07-05T00:45:08;16.50;95.10
13049;DHT22;6591;51.446;5.404;2022-07-05T00:47:35;14.70;95.00
13049;DHT22;6591;51.446;5.404;2022-07-05T00:50:03;14.60;95.20
13049;DHT22;6591;51.446;5.404;2022-07-05T00:52:31;14.60;95.60
13049;DHT22;6591;51.446;5.404;2022-07-05T00:54:59;15.60;96.10
13049;DHT22;6591;51.446;5.404;2022-07-05T00:57:26;14.60;96.30
13049;DHT22;6591;51.446;5.404;2022-07-05T00:59:54;14.50;96.40
13049;DHT22;6591;51.446;5.404;2022-07-05T01:02:22;14.50;96.70
13049;DHT22;6591;51.446;5.404;2022-07-05T01:04:50;16.10;97.50
13049;DHT22;6591;51.446;5.404;2022-07-05T01:07:20;14.40;97.30
13049;DHT22;6591;51.446;5.404;2022-07-05T01:09:50;14.70;97.70
13049;DHT22;6591;51.446;5.404;2022-07-05T01:12:17;14.40;97.70
13049;DHT22;6591;51.446;5.404;2022-07-05T01:14:45;16.30;98.40
13049;DHT22;6591;51.446;5.404;2022-07-05T01:17:14;15.30;98.20
13049;DHT22;6591;51.446;5.404;2022-07-05T01:19:42;14.30;98.10
13049;DHT22;6591;51.446;5.404;2022-07-05T01:22:17;14.20;98.00
13049;DHT22;6591;51.446;5.404;2022-07-05T01:24:47;14.10;98.60
13049;DHT22;6591;51.446;5.404;2022-07-05T01:27:15;16.10;99.20
13049;DHT22;6591;51.446;5.404;2022-07-05T01:29:42;15.00;99.20
13049;DHT22;6591;51.446;5.404;2022-07-05T01:32:10;14.00;99.40
13049;DHT22;6591;51.446;5.404;2022-07-05T01:34:38;13.90;99.60
13049;DHT22;6591;51.446;5.404;2022-07-05T01:37:08;13.90;99.90
13049;DHT22;6591;51.446;5.404;2022-07-05T01:39:35;13.90;99.90
13049;DHT22;6591;51.446;5.404;2022-07-05T01:42:03;13.90;99.90
13049;DHT22;6591;51.446;5.404;2022-07-05T01:44:31;13.90;99.90
13049;DHT22;6591;51.446;5.404;2022-07-05T01:47:07;13.90;99.90
13049;DHT22;6591;51.446;5.404;2022-07-05T01:49:38;13.90;99.90
13049;DHT22;6591;51.446;5.404;2022-07-05T01:52:11;13.90;99.90
13049;DHT22;6591;51.446;5.404;2022-07-05T01:54:40;13.90;99.90
13049;DHT22;6591;51.446;5.404;2022-07-05T01:57:09;13.80;99.90
13049;DHT22;6591;51.446;5.404;2022-07-05T01:59:36;14.90;99.90
13049;DHT22;6591;51.446;5.404;2022-07-05T02:02:06;13.80;99.90
13049;DHT22;6591;51.446;5.404;2022-07-05T02:04:35;13.70;99.90
13049;DHT22;6591;51.446;5.404;2022-07-05T02:07:06;13.70;99.90
13049;DHT22;6591;51.446;5.404;2022-07-05T02:09:36;14.20;99.90
13049;DHT22;6591;51.446;5.404;2022-07-05T02:12:04;15.10;99.90
13049;DHT22;6591;51.446;5.404;2022-07-05T02:14:33;13.60;99.90
13049;DHT22;6591;51.446;5.404;2022-07-05T02:17:03;14.50;99.90
13049;DHT22;6591;51.446;5.404;2022-07-05T02:19:31;13.60;99.90
13049;DHT22;6591;51.446;5.404;2022-07-05T02:22:01;14.70;99.90
13049;DHT22;6591;51.446;5.404;2022-07-05T02:24:28;13.50;99.90
13049;DHT22;6591;51.446;5.404;2022-07-05T02:27:05;13.50;99.90
13049;DHT22;6591;51.446;5.404;2022-07-05T02:29:33;14.50;99.90
13049;DHT22;6591;51.446;5.404;2022-07-05T02:32:02;14.90;99.90
13049;DHT22;6591;51.446;5.404;2022-07-05T02:34:30;13.30;99.90
13049;DHT22;6591;51.446;5.404;2022-07-05T02:36:58;13.30;99.90
13049;DHT22;6591;51.446;5.404;2022-07-05T02:39:28;13.20;99.90
13049;DHT22;6591;51.446;5.404;2022-07-05T02:41:58;13.20;99.90
13049;DHT22;6591;51.446;5.404;2022-07-05T02:44:29;13.20;99.90
13049;DHT22;6591;51.446;5.404;2022-07-05T02:47:00;13.20;99.90
13049;DHT22;6591;51.446;5.404;2022-07-05T02:49:30;13.20;99.90
13049;DHT22;6591;51.446;5.404;2022-07-05T02:51:59;14.20;99.90
13049;DHT22;6591;51.446;5.404;2022-07-05T02:54:27;13.20;99.90
13049;DHT22;6591;51.446;5.404;2022-07-05T02:56:55;13.20;99.90
13049;DHT22;6591;51.446;5.404;2022-07-05T02:59:25;14.60;99.90
13049;DHT22;6591;51.446;5.404;2022-07-05T03:01:53;13.10;99.90
13049;DHT22;6591;51.446;5.404;2022-07-05T03:04:20;15.40;99.90
13049;DHT22;6591;51.446;5.404;2022-07-05T03:06:53;13.00;99.90
13049;DHT22;6591;51.446;5.404;2022-07-05T03:09:24;13.00;99.90
13049;DHT22;6591;51.446;5.404;2022-07-05T03:11:54;12.90;99.90
13049;DHT22;6591;51.446;5.404;2022-07-05T03:14:21;12.90;99.90
13049;DHT22;6591;51.446;5.404;2022-07-05T03:16:50;12.80;99.90
13049;DHT22;6591;51.446;5.404;2022-07-05T03:19:19;12.80;99.90
13049;DHT22;6591;51.446;5.404;2022-07-05T03:21:47;12.80;99.90
13049;DHT22;6591;51.446;5.404;2022-07-05T03:24:14;14.80;99.90
13049;DHT22;6591;51.446;5.404;2022-07-05T03:26:41;12.70;99.90
13049;DHT22;6591;51.446;5.404;2022-07-05T03:29:08;12.70;99.90
13049;DHT22;6591;51.446;5.404;2022-07-05T03:31:37;12.80;99.90
13049;DHT22;6591;51.446;5.404;2022-07-05T03:34:06;13.30;99.90
13049;DHT22;6591;51.446;5.404;2022-07-05T03:36:33;13.50;99.90
13049;DHT22;6591;51.446;5.404;2022-07-05T03:39:04;14.30;99.90
13049;DHT22;6591;51.446;5.404;2022-07-05T03:41:33;13.00;99.90
13049;DHT22;6591;51.446;5.404;2022-07-05T03:44:01;14.20;99.90
13049;DHT22;6591;51.446;5.404;2022-07-05T03:46:29;12.90;99.90
13049;DHT22;6591;51.446;5.404;2022-07-05T03:48:56;13.00;99.90
13049;DHT22;6591;51.446;5.404;2022-07-05T03:51:25;14.40;99.90
13049;DHT22;6591;51.446;5.404;2022-07-05T03:53:56;13.80;99.90
13049;DHT22;6591;51.446;5.404;2022-07-05T03:56:25;14.50;99.90
13049;DHT22;6591;51.446;5.404;2022-07-05T03:58:59;13.10;99.90
13049;DHT22;6591;51.446;5.404;2022-07-05T04:01:28;13.80;99.90
13049;DHT22;6591;51.446;5.404;2022-07-05T04:03:56;14.50;99.90
13049;DHT22;6591;51.446;5.404;2022-07-05T04:06:28;13.30;99.90
13049;DHT22;6591;51.446;5.404;2022-07-05T04:08:56;12.00;99.90
13049;DHT22;6591;51.446;5.404;2022-07-05T04:11:25;14.80;99.90
13049;DHT22;6591;51.446;5.404;2022-07-05T04:13:54;15.50;99.90
13049;DHT22;6591;51.446;5.404;2022-07-05T04:16:21;13.50;99.90
13049;DHT22;6591;51.446;5.404;2022-07-05T04:18:49;13.50;99.90
13049;DHT22;6591;51.446;5.404;2022-07-05T04:21:16;13.60;99.90
13049;DHT22;6591;51.446;5.404;2022-07-05T04:23:43;15.00;99.90
13049;DHT22;6591;51.446;5.404;2022-07-05T04:26:11;13.70;99.90
13049;DHT22;6591;51.446;5.404;2022-07-05T04:28:43;13.80;99.90
13049;DHT22;6591;51.446;5.404;2022-07-05T04:31:14;15.00;99.90
13049;DHT22;6591;51.446;5.404;2022-07-05T04:33:45;13.90;99.90
13049;DHT22;6591;51.446;5.404;2022-07-05T04:36:18;15.20;99.90
13049;DHT22;6591;51.446;5.404;2022-07-05T04:38:46;14.10;99.90
13049;DHT22;6591;51.446;5.404;2022-07-05T04:41:15;14.70;99.90
13049;DHT22;6591;51.446;5.404;2022-07-05T04:43:42;16.00;99.90
13049;DHT22;6591;51.446;5.404;2022-07-05T04:46:12;14.20;99.90
13049;DHT22;6591;51.446;5.404;2022-07-05T04:48:40;14.20;99.90
13049;DHT22;6591;51.446;5.404;2022-07-05T04:51:08;14.30;99.90
13049;DHT22;6591;51.446;5.404;2022-07-05T04:53:36;14.30;99.90
13049;DHT22;6591;51.446;5.404;2022-07-05T04:56:04;15.60;99.90
13049;DHT22;6591;51.446;5.404;2022-07-05T04:58:33;14.50;99.90
13049;DHT22;6591;51.446;5.404;2022-07-05T05:01:00;16.00;99.90
13049;DHT22;6591;51.446;5.404;2022-07-05T05:03:29;14.70;99.90
13049;DHT22;6591;51.446;5.404;2022-07-05T05:05:56;13.70;99.90
13049;DHT22;6591;51.446;5.404;2022-07-05T05:08:24;14.90;99.90
13049;DHT22;6591;51.446;5.404;2022-07-05T05:10:51;15.00;99.90
13049;DHT22;6591;51.446;5.404;2022-07-05T05:13:19;16.70;99.90
13049;DHT22;6591;51.446;5.404;2022-07-05T05:15:46;15.20;99.90
13049;DHT22;6591;51.446;5.404;2022-07-05T05:18:13;17.20;99.90
13049;DHT22;6591;51.446;5.404;2022-07-05T05:20:41;15.40;99.90
13049;DHT22;6591;51.446;5.404;2022-07-05T05:23:10;16.70;99.90
13049;DHT22;6591;51.446;5.404;2022-07-05T05:25:37;16.20;99.90
13049;DHT22;6591;51.446;5.404;2022-07-05T05:28:04;17.40;99.90
13049;DHT22;6591;51.446;5.404;2022-07-05T05:30:31;17.70;99.90
13049;DHT22;6591;51.446;5.404;2022-07-05T05:32:59;16.10;99.90
13049;DHT22;6591;51.446;5.404;2022-07-05T05:35:29;16.30;99.90
13049;DHT22;6591;51.446;5.404;2022-07-05T05:37:56;16.40;99.90
13049;DHT22;6591;51.446;5.404;2022-07-05T05:40:29;17.70;99.90
13049;DHT22;6591;51.446;5.404;2022-07-05T05:42:56;16.70;99.90
13049;DHT22;6591;51.446;5.404;2022-07-05T05:45:25;16.90;99.90
13049;DHT22;6591;51.446;5.404;2022-07-05T05:47:56;17.00;99.90
13049;DHT22;6591;51.446;5.404;2022-07-05T05:53:02;17.40;99.90
13049;DHT22;6591;51.446;5.404;2022-07-05T05:55:30;17.50;99.90
13049;DHT22;6591;51.446;5.404;2022-07-05T06:00:44;17.90;99.90
13049;DHT22;6591;51.446;5.404;2022-07-05T06:03:15;18.00;99.90
13049;DHT22;6591;51.446;5.404;2022-07-05T06:05:43;18.10;99.90
13049;DHT22;6591;51.446;5.404;2022-07-05T06:08:10;18.20;99.90
13049;DHT22;6591;51.446;5.404;2022-07-05T06:10:38;18.90;99.90
13049;DHT22;6591;51.446;5.404;2022-07-05T06:13:08;18.50;99.90
13049;DHT22;6591;51.446;5.404;2022-07-05T06:15:37;19.40;99.90
13049;DHT22;6591;51.446;5.404;2022-07-05T06:18:04;18.80;99.90
13049;DHT22;6591;51.446;5.404;2022-07-05T06:20:35;18.90;99.90
13049;DHT22;6591;51.446;5.404;2022-07-05T06:23:04;19.10;99.90
13049;DHT22;6591;51.446;5.404;2022-07-05T06:25:32;20.60;99.90
13049;DHT22;6591;51.446;5.404;2022-07-05T06:28:04;19.40;99.90
13049;DHT22;6591;51.446;5.404;2022-07-05T06:30:35;19.50;99.90
13049;DHT22;6591;51.446;5.404;2022-07-05T06:33:03;19.60;99.90
13049;DHT22;6591;51.446;5.404;2022-07-05T06:35:31;19.90;99.90
13049;DHT22;6591;51.446;5.404;2022-07-05T06:38:07;20.00;99.90
13049;DHT22;6591;51.446;5.404;2022-07-05T06:40:40;20.20;99.90
13049;DHT22;6591;51.446;5.404;2022-07-05T06:43:12;20.40;99.90
13049;DHT22;6591;51.446;5.404;2022-07-05T06:45:53;20.70;99.90
13049;DHT22;6591;51.446;5.404;2022-07-05T06:48:20;21.00;99.90
13049;DHT22;6591;51.446;5.404;2022-07-05T06:50:47;21.10;99.90
13049;DHT22;6591;51.446;5.404;2022-07-05T06:53:15;21.30;99.90
13049;DHT22;6591;51.446;5.404;2022-07-05T06:55:42;21.50;99.90
13049;DHT22;6591;51.446;5.404;2022-07-05T06:58:19;21.70;99.90
13049;DHT22;6591;51.446;5.404;2022-07-05T07:00:46;21.90;99.70
13049;DHT22;6591;51.446;5.404;2022-07-05T07:03:33;21.90;99.30
13049;DHT22;6591;51.446;5.404;2022-07-05T07:06:21;22.00;99.00
13049;DHT22;6591;51.446;5.404;2022-07-05T07:08:49;22.10;98.80
13049;DHT22;6591;51.446;5.404;2022-07-05T07:11:34;22.10;98.80
13049;DHT22;6591;51.446;5.404;2022-07-05T07:14:02;24.20;99.60
13049;DHT22;6591;51.446;5.404;2022-07-05T07:16:29;22.50;99.10
13049;DHT22;6591;51.446;5.404;2022-07-05T07:18:56;22.80;99.10
13049;DHT22;6591;51.446;5.404;2022-07-05T07:21:39;25.00;99.50
13049;DHT22;6591;51.446;5.404;2022-07-05T07:24:08;23.60;98.60
13049;DHT22;6591;51.446;5.404;2022-07-05T07:26:35;25.90;98.90
13049;DHT22;6591;51.446;5.404;2022-07-05T07:29:39;24.30;97.90
13049;DHT22;6591;51.446;5.404;2022-07-05T07:32:07;24.80;97.30
13049;DHT22;6591;51.446;5.404;2022-07-05T07:34:36;25.10;96.80
13049;DHT22;6591;51.446;5.404;2022-07-05T07:37:05;26.20;96.80
13049;DHT22;6591;51.446;5.404;2022-07-05T07:39:32;25.80;96.10
13049;DHT22;6591;51.446;5.404;2022-07-05T07:41:59;25.70;95.50
13049;DHT22;6591;51.446;5.404;2022-07-05T07:44:27;26.00;95.10
13049;DHT22;6591;51.446;5.404;2022-07-05T07:46:54;26.10;94.60
13049;DHT22;6591;51.446;5.404;2022-07-05T07:49:22;26.30;94.50
13049;DHT22;6591;51.446;5.404;2022-07-05T07:51:50;26.80;94.10
13049;DHT22;6591;51.446;5.404;2022-07-05T07:54:18;28.50;94.50
13049;DHT22;6591;51.446;5.404;2022-07-05T07:56:45;27.30;93.60
13049;DHT22;6591;51.446;5.404;2022-07-05T07:59:12;26.40;93.00
13049;DHT22;6591;51.446;5.404;2022-07-05T08:01:39;26.80;92.70
13049;DHT22;6591;51.446;5.404;2022-07-05T08:04:12;28.10;93.00
13049;DHT22;6591;51.446;5.404;2022-07-05T08:06:40;27.00;92.40
13049;DHT22;6591;51.446;5.404;2022-07-05T08:09:09;27.00;92.10
13049;DHT22;6591;51.446;5.404;2022-07-05T08:11:43;27.00;92.00
13049;DHT22;6591;51.446;5.404;2022-07-05T08:14:11;27.10;91.80
13049;DHT22;6591;51.446;5.404;2022-07-05T08:16:38;27.20;91.50
13049;DHT22;6591;51.446;5.404;2022-07-05T08:19:06;27.20;91.10
13049;DHT22;6591;51.446;5.404;2022-07-05T08:21:54;26.00;90.50
13049;DHT22;6591;51.446;5.404;2022-07-05T08:24:21;27.30;90.80
13049;DHT22;6591;51.446;5.404;2022-07-05T08:26:48;27.30;90.70
13049;DHT22;6591;51.446;5.404;2022-07-05T08:29:15;27.40;90.70
13049;DHT22;6591;51.446;5.404;2022-07-05T08:31:50;27.50;90.40
13049;DHT22;6591;51.446;5.404;2022-07-05T08:34:18;27.60;90.30
13049;DHT22;6591;51.446;5.404;2022-07-05T08:36:46;27.60;90.10
13049;DHT22;6591;51.446;5.404;2022-07-05T08:39:15;27.70;89.90
13049;DHT22;6591;51.446;5.404;2022-07-05T08:41:43;27.80;89.40
13049;DHT22;6591;51.446;5.404;2022-07-05T08:44:20;27.90;88.90
13049;DHT22;6591;51.446;5.404;2022-07-05T08:46:51;28.00;88.00
13049;DHT22;6591;51.446;5.404;2022-07-05T08:49:22;28.10;88.10
13049;DHT22;6591;51.446;5.404;2022-07-05T08:51:55;28.30;87.60
13049;DHT22;6591;51.446;5.404;2022-07-05T08:54:24;28.40;86.90
13049;DHT22;6591;51.446;5.404;2022-07-05T08:56:51;30.00;86.90
13049;DHT22;6591;51.446;5.404;2022-07-05T08:59:38;28.60;84.40
13049;DHT22;6591;51.446;5.404;2022-07-05T09:02:05;28.90;83.40
13049;DHT22;6591;51.446;5.404;2022-07-05T09:04:40;28.50;82.30
13049;DHT22;6591;51.446;5.404;2022-07-05T09:07:14;28.40;81.20
13049;DHT22;6591;51.446;5.404;2022-07-05T09:09:43;28.30;81.00
13049;DHT22;6591;51.446;5.404;2022-07-05T09:12:14;28.40;81.00
13049;DHT22;6591;51.446;5.404;2022-07-05T09:14:54;28.50;80.30
13049;DHT22;6591;51.446;5.404;2022-07-05T09:17:22;27.60;79.80
13049;DHT22;6591;51.446;5.404;2022-07-05T09:22:53;30.60;79.60
13049;DHT22;6591;51.446;5.404;2022-07-05T09:25:30;29.50;78.80
13049;DHT22;6591;51.446;5.404;2022-07-05T09:28:03;30.00;77.20
13049;DHT22;6591;51.446;5.404;2022-07-05T09:30:36;30.10;75.00
13049;DHT22;6591;51.446;5.404;2022-07-05T09:33:15;30.30;74.10
13049;DHT22;6591;51.446;5.404;2022-07-05T09:35:51;30.50;71.90
13049;DHT22;6591;51.446;5.404;2022-07-05T09:38:29;30.60;72.50
13049;DHT22;6591;51.446;5.404;2022-07-05T09:40:58;30.80;71.40
13049;DHT22;6591;51.446;5.404;2022-07-05T09:43:29;31.10;70.60
13049;DHT22;6591;51.446;5.404;2022-07-05T09:46:02;31.40;69.50
13049;DHT22;6591;51.446;5.404;2022-07-05T09:48:31;31.60;67.00
13049;DHT22;6591;51.446;5.404;2022-07-05T09:51:12;31.80;67.30
13049;DHT22;6591;51.446;5.404;2022-07-05T09:54:01;32.00;65.70
13049;DHT22;6591;51.446;5.404;2022-07-05T09:56:48;32.10;65.70
13049;DHT22;6591;51.446;5.404;2022-07-05T09:59:17;32.10;60.40
13049;DHT22;6591;51.446;5.404;2022-07-05T10:01:48;32.10;61.90
13049;DHT22;6591;51.446;5.404;2022-07-05T10:04:15;32.10;61.10
13049;DHT22;6591;51.446;5.404;2022-07-05T10:06:43;32.10;60.40
13049;DHT22;6591;51.446;5.404;2022-07-05T10:09:11;32.10;61.10
13049;DHT22;6591;51.446;5.404;2022-07-05T10:11:43;32.20;60.20
13049;DHT22;6591;51.446;5.404;2022-07-05T10:14:19;32.50;59.10
13049;DHT22;6591;51.446;5.404;2022-07-05T10:17:00;32.70;58.20
13049;DHT22;6591;51.446;5.404;2022-07-05T10:19:35;32.70;57.20
13049;DHT22;6591;51.446;5.404;2022-07-05T10:22:09;32.60;57.10
13049;DHT22;6591;51.446;5.404;2022-07-05T10:24:44;32.40;57.00
13049;DHT22;6591;51.446;5.404;2022-07-05T10:27:13;32.10;56.80
13049;DHT22;6591;51.446;5.404;2022-07-05T10:29:42;31.80;56.60
13049;DHT22;6591;51.446;5.404;2022-07-05T10:32:10;31.40;56.60
13049;DHT22;6591;51.446;5.404;2022-07-05T10:34:41;30.80;56.90
13049;DHT22;6591;51.446;5.404;2022-07-05T10:37:32;30.30;57.00
13049;DHT22;6591;51.446;5.404;2022-07-05T10:40:03;29.80;57.00
13049;DHT22;6591;51.446;5.404;2022-07-05T10:42:42;29.30;57.80
13049;DHT22;6591;51.446;5.404;2022-07-05T10:48:12;28.50;59.00
13049;DHT22;6591;51.446;5.404;2022-07-05T10:50:55;28.20;59.00
13049;DHT22;6591;51.446;5.404;2022-07-05T10:58:39;27.60;60.10
13049;DHT22;6591;51.446;5.404;2022-07-05T11:03:48;27.70;61.60
13049;DHT22;6591;51.446;5.404;2022-07-05T11:06:23;28.20;62.50
13049;DHT22;6591;51.446;5.404;2022-07-05T11:12:05;29.40;60.80
13049;DHT22;6591;51.446;5.404;2022-07-05T11:14:48;29.00;59.80
13049;DHT22;6591;51.446;5.404;2022-07-05T11:17:21;29.20;59.40
13049;DHT22;6591;51.446;5.404;2022-07-05T11:20:25;29.40;59.00
13049;DHT22;6591;51.446;5.404;2022-07-05T11:23:06;29.60;59.00
13049;DHT22;6591;51.446;5.404;2022-07-05T11:25:45;29.70;57.50
13049;DHT22;6591;51.446;5.404;2022-07-05T11:28:18;29.60;56.60
13049;DHT22;6591;51.446;5.404;2022-07-05T11:30:54;29.40;56.50
13049;DHT22;6591;51.446;5.404;2022-07-05T11:33:41;29.20;56.60
13049;DHT22;6591;51.446;5.404;2022-07-05T11:36:25;29.00;56.20
13049;DHT22;6591;51.446;5.404;2022-07-05T11:39:18;28.80;56.50
13049;DHT22;6591;51.446;5.404;2022-07-05T11:41:48;28.60;57.10
13049;DHT22;6591;51.446;5.404;2022-07-05T11:44:16;28.40;57.40
13049;DHT22;6591;51.446;5.404;2022-07-05T11:46:44;28.20;57.20
13049;DHT22;6591;51.446;5.404;2022-07-05T11:49:24;28.10;58.30
13049;DHT22;6591;51.446;5.404;2022-07-05T11:51:56;28.00;57.60
13049;DHT22;6591;51.446;5.404;2022-07-05T11:54:26;28.00;56.20
13049;DHT22;6591;51.446;5.404;2022-07-05T11:56:59;27.80;55.90
13049;DHT22;6591;51.446;5.404;2022-07-05T11:59:28;28.60;56.40
13049;DHT22;6591;51.446;5.404;2022-07-05T12:01:55;27.60;55.20
13049;DHT22;6591;51.446;5.404;2022-07-05T12:04:30;27.30;55.30
13049;DHT22;6591;51.446;5.404;2022-07-05T12:07:00;27.10;55.60
13049;DHT22;6591;51.446;5.404;2022-07-05T12:09:32;27.00;56.30
13049;DHT22;6591;51.446;5.404;2022-07-05T12:12:22;26.90;57.20
13049;DHT22;6591;51.446;5.404;2022-07-05T12:17:45;27.10;59.40
13049;DHT22;6591;51.446;5.404;2022-07-05T12:20:20;27.40;59.80
13049;DHT22;6591;51.446;5.404;2022-07-05T12:22:49;28.70;60.70
13049;DHT22;6591;51.446;5.404;2022-07-05T12:25:19;28.30;59.30
13049;DHT22;6591;51.446;5.404;2022-07-05T12:27:48;28.60;58.20
13049;DHT22;6591;51.446;5.404;2022-07-05T12:30:17;28.80;57.40
13049;DHT22;6591;51.446;5.404;2022-07-05T12:35:44;28.70;56.10
13049;DHT22;6591;51.446;5.404;2022-07-05T12:38:15;28.60;56.50
13049;DHT22;6591;51.446;5.404;2022-07-05T12:40:47;28.30;56.90
13049;DHT22;6591;51.446;5.404;2022-07-05T12:43:23;28.10;57.00
13049;DHT22;6591;51.446;5.404;2022-07-05T12:46:08;28.10;57.10
13049;DHT22;6591;51.446;5.404;2022-07-05T12:48:36;28.90;57.30
13049;DHT22;6591;51.446;5.404;2022-07-05T12:51:07;27.90;57.10
13049;DHT22;6591;51.446;5.404;2022-07-05T12:53:47;27.70;57.20
13049;DHT22;6591;51.446;5.404;2022-07-05T12:56:34;27.70;57.50
13049;DHT22;6591;51.446;5.404;2022-07-05T12:59:40;27.70;58.00
13049;DHT22;6591;51.446;5.404;2022-07-05T13:02:36;27.70;57.50
13049;DHT22;6591;51.446;5.404;2022-07-05T13:05:19;27.90;57.50
13049;DHT22;6591;51.446;5.404;2022-07-05T13:07:49;27.80;57.00
13049;DHT22;6591;51.446;5.404;2022-07-05T13:10:24;27.90;57.40
13049;DHT22;6591;51.446;5.404;2022-07-05T13:12:52;27.90;57.80
13049;DHT22;6591;51.446;5.404;2022-07-05T13:15:19;28.10;57.80
13049;DHT22;6591;51.446;5.404;2022-07-05T13:17:47;28.20;57.40
13049;DHT22;6591;51.446;5.404;2022-07-05T13:20:15;28.50;56.80
13049;DHT22;6591;51.446;5.404;2022-07-05T13:22:45;28.50;55.80
13049;DHT22;6591;51.446;5.404;2022-07-05T13:25:14;28.60;55.60
13049;DHT22;6591;51.446;5.404;2022-07-05T13:27:41;28.70;55.10
13049;DHT22;6591;51.446;5.404;2022-07-05T13:30:09;28.80;55.70
13049;DHT22;6591;51.446;5.404;2022-07-05T13:32:36;28.90;55.50
13049;DHT22;6591;51.446;5.404;2022-07-05T13:35:04;29.10;55.50
13049;DHT22;6591;51.446;5.404;2022-07-05T13:37:31;29.20;55.90
13049;DHT22;6591;51.446;5.404;2022-07-05T13:40:01;29.50;55.20
13049;DHT22;6591;51.446;5.404;2022-07-05T13:42:29;29.70;53.90
13049;DHT22;6591;51.446;5.404;2022-07-05T13:44:56;30.20;54.00
13049;DHT22;6591;51.446;5.404;2022-07-05T13:47:28;30.10;53.40
13049;DHT22;6591;51.446;5.404;2022-07-05T13:49:55;30.00;52.50
13049;DHT22;6591;51.446;5.404;2022-07-05T13:52:42;29.90;52.60
13049;DHT22;6591;51.446;5.404;2022-07-05T13:55:09;29.80;52.10
13049;DHT22;6591;51.446;5.404;2022-07-05T13:57:36;29.60;52.10
13049;DHT22;6591;51.446;5.404;2022-07-05T14:00:03;29.40;52.50
13049;DHT22;6591;51.446;5.404;2022-07-05T14:02:31;29.20;52.50
13049;DHT22;6591;51.446;5.404;2022-07-05T14:04:59;29.00;52.80
13049;DHT22;6591;51.446;5.404;2022-07-05T14:07:27;28.80;52.50
13049;DHT22;6591;51.446;5.404;2022-07-05T14:09:54;28.60;52.70
13049;DHT22;6591;51.446;5.404;2022-07-05T14:12:21;28.50;52.90
13049;DHT22;6591;51.446;5.404;2022-07-05T14:14:48;28.20;53.20
13049;DHT22;6591;51.446;5.404;2022-07-05T14:17:15;28.00;53.40
13049;DHT22;6591;51.446;5.404;2022-07-05T14:19:42;27.90;53.60
13049;DHT22;6591;51.446;5.404;2022-07-05T14:22:09;27.70;53.60
13049;DHT22;6591;51.446;5.404;2022-07-05T14:24:36;27.50;53.50
13049;DHT22;6591;51.446;5.404;2022-07-05T14:27:04;27.20;53.80
13049;DHT22;6591;51.446;5.404;2022-07-05T14:29:35;27.00;54.20
13049;DHT22;6591;51.446;5.404;2022-07-05T14:32:02;26.90;54.30
13049;DHT22;6591;51.446;5.404;2022-07-05T14:34:29;26.70;54.60
13049;DHT22;6591;51.446;5.404;2022-07-05T14:36:56;26.60;54.70
13049;DHT22;6591;51.446;5.404;2022-07-05T14:39:24;26.50;54.60
13049;DHT22;6591;51.446;5.404;2022-07-05T14:41:51;26.40;54.80
13049;DHT22;6591;51.446;5.404;2022-07-05T14:44:18;26.30;54.80
13049;DHT22;6591;51.446;5.404;2022-07-05T14:46:45;26.60;55.40
13049;DHT22;6591;51.446;5.404;2022-07-05T14:49:12;25.90;55.20
13049;DHT22;6591;51.446;5.404;2022-07-05T14:51:39;25.80;55.30
13049;DHT22;6591;51.446;5.404;2022-07-05T14:54:06;25.70;55.30
13049;DHT22;6591;51.446;5.404;2022-07-05T14:56:33;26.30;55.90
13049;DHT22;6591;51.446;5.404;2022-07-05T14:59:00;25.60;55.70
13049;DHT22;6591;51.446;5.404;2022-07-05T15:01:28;25.90;56.20
13049;DHT22;6591;51.446;5.404;2022-07-05T15:03:55;25.40;56.30
13049;DHT22;6591;51.446;5.404;2022-07-05T15:06:22;25.40;56.50
13049;DHT22;6591;51.446;5.404;2022-07-05T15:08:49;25.50;56.90
13049;DHT22;6591;51.446;5.404;2022-07-05T15:11:24;25.60;57.10
13049;DHT22;6591;51.446;5.404;2022-07-05T15:13:52;26.50;58.00
13049;DHT22;6591;51.446;5.404;2022-07-05T15:16:21;26.20;57.40
13049;DHT22;6591;51.446;5.404;2022-07-05T15:18:48;26.50;57.50
13049;DHT22;6591;51.446;5.404;2022-07-05T15:21:15;26.90;56.90
13049;DHT22;6591;51.446;5.404;2022-07-05T15:23:42;27.20;55.70
13049;DHT22;6591;51.446;5.404;2022-07-05T15:26:09;27.50;56.00
13049;DHT22;6591;51.446;5.404;2022-07-05T15:28:36;27.90;55.90
13049;DHT22;6591;51.446;5.404;2022-07-05T15:31:03;28.10;55.50
13049;DHT22;6591;51.446;5.404;2022-07-05T15:33:30;29.30;55.70
13049;DHT22;6591;51.446;5.404;2022-07-05T15:35:59;28.60;54.50
13049;DHT22;6591;51.446;5.404;2022-07-05T15:38:26;28.80;54.30
13049;DHT22;6591;51.446;5.404;2022-07-05T15:40:58;29.00;53.90
13049;DHT22;6591;51.446;5.404;2022-07-05T15:43:25;29.20;53.80
13049;DHT22;6591;51.446;5.404;2022-07-05T15:45:54;29.40;52.90
13049;DHT22;6591;51.446;5.404;2022-07-05T15:48:21;31.00;53.30
13049;DHT22;6591;51.446;5.404;2022-07-05T15:50:49;29.70;51.90
13049;DHT22;6591;51.446;5.404;2022-07-05T15:53:25;29.90;51.70
13049;DHT22;6591;51.446;5.404;2022-07-05T15:55:53;30.00;51.50
13049;DHT22;6591;51.446;5.404;2022-07-05T15:58:29;30.90;52.20
13049;DHT22;6591;51.446;5.404;2022-07-05T16:01:01;30.00;50.70
13049;DHT22;6591;51.446;5.404;2022-07-05T16:03:29;30.00;50.30
13049;DHT22;6591;51.446;5.404;2022-07-05T16:05:59;29.80;50.50
13049;DHT22;6591;51.446;5.404;2022-07-05T16:08:28;29.70;50.30
13049;DHT22;6591;51.446;5.404;2022-07-05T16:10:55;29.40;50.00
13049;DHT22;6591;51.446;5.404;2022-07-05T16:13:23;29.20;50.40
13049;DHT22;6591;51.446;5.404;2022-07-05T16:15:51;29.00;50.60
13049;DHT22;6591;51.446;5.404;2022-07-05T16:18:37;29.00;51.00
13049;DHT22;6591;51.446;5.404;2022-07-05T16:21:10;28.80;50.90
13049;DHT22;6591;51.446;5.404;2022-07-05T16:23:42;29.00;51.50
13049;DHT22;6591;51.446;5.404;2022-07-05T16:26:14;29.20;51.80
13049;DHT22;6591;51.446;5.404;2022-07-05T16:28:42;29.40;51.40
13049;DHT22;6591;51.446;5.404;2022-07-05T16:31:11;29.50;51.00
13049;DHT22;6591;51.446;5.404;2022-07-05T16:33:46;29.70;50.60